Time;durP1;ratioP1;P1;durP2;ratioP2;P2;SDS_P1;SDS_P2;PMS_P1;PMS_P2;Temp;Humidity;BMP_temperature;BMP_pressure;BME280_temperature;BME280_humidity;BME280_pressure;Samples;Min_cycle;Max_cycle;Signal;HPM_P1;HPM_P2
2023/09/08 04:01:44;;;;;;;4.80;4.60;;;15.50;99.90;;;;;;5302262;23;21082;-70
2023/09/08 04:04:11;;;;;;;5.37;4.97;;;15.40;99.90;;;;;;4931887;29;20803;-70
2023/09/08 04:06:37;;;;;;;4.87;4.43;;;15.40;99.90;;;;;;4934617;29;20466;-70
2023/09/08 04:09:04;;;;;;;5.77;5.23;;;15.40;99.90;;;;;;4934258;29;20461;-70
2023/09/08 04:11:31;;;;;;;6.47;5.97;;;15.30;99.90;;;;;;4934456;29;20473;-70
2023/09/08 04:13:58;;;;;;;5.03;4.63;;;15.30;99.90;;;;;;4929054;29;20459;-70
2023/09/08 04:16:24;;;;;;;5.37;4.93;;;15.30;99.90;;;;;;4900673;29;20477;-70
2023/09/08 04:18:52;;;;;;;5.53;5.07;;;15.30;99.90;;;;;;4903076;29;20471;-69
2023/09/08 04:21:19;;;;;;;5.23;4.83;;;15.30;99.90;;;;;;4915497;29;20486;-69
2023/09/08 04:23:46;;;;;;;5.83;5.27;;;15.30;99.90;;;;;;4915651;29;20826;-69
2023/09/08 04:26:13;;;;;;;6.40;5.90;;;15.20;99.90;;;;;;4912373;29;20553;-69
2023/09/08 04:28:40;;;;;;;6.37;5.40;;;15.20;99.90;;;;;;4915304;29;20469;-70
2023/09/08 04:31:06;;;;;;;4.87;4.50;;;15.10;99.90;;;;;;4915905;29;20486;-70
2023/09/08 04:33:33;;;;;;;5.87;5.37;;;15.10;99.90;;;;;;4915574;29;20469;-70
2023/09/08 04:36:01;;;;;;;5.30;4.97;;;15.10;99.90;;;;;;4909621;29;20992;-70
2023/09/08 04:38:28;;;;;;;5.50;5.10;;;15.00;99.90;;;;;;4913446;29;20466;-70
2023/09/08 04:40:55;;;;;;;6.40;5.90;;;15.00;99.90;;;;;;4913257;29;20491;-69
2023/09/08 04:43:21;;;;;;;5.53;4.97;;;15.00;99.90;;;;;;4905761;29;20471;-70
2023/09/08 04:45:48;;;;;;;5.40;4.97;;;15.00;99.90;;;;;;4906519;29;20474;-70
2023/09/08 04:48:15;;;;;;;5.23;4.83;;;15.00;99.90;;;;;;4900595;29;20483;-69
2023/09/08 04:50:41;;;;;;;5.67;5.17;;;14.90;99.90;;;;;;4895902;29;20487;-69
2023/09/08 04:53:09;;;;;;;5.40;4.90;;;14.90;99.90;;;;;;4896009;29;20811;-70
2023/09/08 04:55:36;;;;;;;6.50;6.10;;;14.90;99.90;;;;;;4896229;29;20471;-70
2023/09/08 04:58:03;;;;;;;5.40;4.90;;;14.90;99.90;;;;;;4903287;29;20458;-70
2023/09/08 05:00:30;;;;;;;5.10;4.70;;;14.90;99.90;;;;;;4898853;29;20506;-68
2023/09/08 05:02:56;;;;;;;5.57;5.03;;;14.90;99.90;;;;;;4901048;29;20561;-71
2023/09/08 05:05:23;;;;;;;5.80;5.30;;;14.90;99.90;;;;;;4898359;29;20910;-69
2023/09/08 05:07:50;;;;;;;5.97;5.50;;;15.00;99.90;;;;;;4901336;29;20474;-70
2023/09/08 05:10:19;;;;;;;6.07;5.57;;;14.90;99.90;;;;;;4906186;29;20463;-70
2023/09/08 05:12:45;;;;;;;5.83;5.33;;;15.00;99.90;;;;;;4896960;29;20479;-71
2023/09/08 05:15:15;;;;;;;6.43;5.83;;;15.00;99.90;;;;;;4896627;29;20468;-71
2023/09/08 05:17:42;;;;;;;5.40;5.03;;;15.00;99.90;;;;;;4896319;29;20470;-70
2023/09/08 05:20:09;;;;;;;6.53;5.90;;;15.00;99.90;;;;;;4900626;29;20470;-71
2023/09/08 05:22:36;;;;;;;7.57;6.00;;;15.00;99.90;;;;;;4906467;29;20486;-70
2023/09/08 05:25:03;;;;;;;5.50;5.23;;;15.00;99.90;;;;;;4901295;29;20467;-71
2023/09/08 05:27:31;;;;;;;7.73;5.73;;;15.10;99.90;;;;;;4914451;29;20835;-70
2023/09/08 05:29:58;;;;;;;5.93;5.43;;;15.10;99.90;;;;;;4911058;29;20479;-72
2023/09/08 05:32:25;;;;;;;7.23;6.40;;;15.10;99.90;;;;;;4903940;29;20494;-71
2023/09/08 05:34:51;;;;;;;5.67;5.23;;;15.20;99.90;;;;;;4906075;29;20464;-70
2023/09/08 05:37:18;;;;;;;7.63;6.57;;;15.20;99.90;;;;;;4897085;29;20467;-71
2023/09/08 05:39:45;;;;;;;6.97;6.37;;;15.30;99.90;;;;;;4897013;29;20467;-71
2023/09/08 05:42:11;;;;;;;8.03;7.30;;;15.30;99.90;;;;;;4896652;29;20549;-72
2023/09/08 05:44:40;;;;;;;8.27;5.47;;;15.40;99.90;;;;;;4914595;29;20496;-71
2023/09/08 05:47:06;;;;;;;6.10;5.60;;;15.40;99.90;;;;;;4903749;29;20794;-72
2023/09/08 05:49:33;;;;;;;5.77;5.27;;;15.40;99.90;;;;;;4908161;29;20474;-70
2023/09/08 05:52:00;;;;;;;7.00;6.40;;;15.50;99.90;;;;;;4905169;29;20487;-70
2023/09/08 05:54:28;;;;;;;6.20;5.50;;;15.50;99.90;;;;;;4906223;29;20463;-70
2023/09/08 05:56:55;;;;;;;5.93;5.53;;;15.60;99.90;;;;;;4908669;29;20479;-71
2023/09/08 05:59:22;;;;;;;6.10;5.50;;;15.60;99.90;;;;;;4906754;29;20477;-71
2023/09/08 06:01:50;;;;;;;6.57;6.10;;;15.60;99.90;;;;;;4902071;29;20861;-70
2023/09/08 06:04:17;;;;;;;6.23;5.67;;;15.70;99.90;;;;;;4912963;29;20474;-70
2023/09/08 06:06:44;;;;;;;6.27;5.77;;;15.80;99.90;;;;;;4898869;29;20476;-70
2023/09/08 06:09:12;;;;;;;6.33;5.80;;;15.80;99.90;;;;;;4906159;29;20463;-70
2023/09/08 06:11:38;;;;;;;6.47;5.87;;;15.80;99.90;;;;;;4899035;29;20484;-70
2023/09/08 06:14:05;;;;;;;6.17;5.57;;;15.90;99.90;;;;;;4899200;29;20963;-70
2023/09/08 06:16:32;;;;;;;6.50;5.93;;;16.00;99.90;;;;;;4898497;29;20472;-71
2023/09/08 06:19:00;;;;;;;6.27;4.87;;;16.10;99.90;;;;;;4898410;29;20835;-69
2023/09/08 06:21:27;;;;;;;5.43;5.13;;;16.20;99.90;;;;;;4906038;29;20640;-69
2023/09/08 06:23:53;;;;;;;6.00;5.60;;;16.30;99.90;;;;;;4900584;29;20492;-69
2023/09/08 06:26:20;;;;;;;6.93;5.90;;;16.40;99.90;;;;;;4907479;29;20838;-70
2023/09/08 06:28:47;;;;;;;5.93;5.40;;;16.60;99.90;;;;;;4909953;29;20476;-70
2023/09/08 06:31:14;;;;;;;5.77;5.13;;;16.70;99.90;;;;;;4900917;29;20520;-69
2023/09/08 06:33:41;;;;;;;4.37;4.07;;;16.80;99.90;;;;;;4909113;29;20472;-69
2023/09/08 06:36:09;;;;;;;6.50;5.30;;;16.90;99.90;;;;;;4913503;29;20472;-69
2023/09/08 06:38:36;;;;;;;5.60;5.10;;;17.00;99.90;;;;;;4915387;29;20475;-69
2023/09/08 06:41:09;;;;;;;4.57;4.30;;;17.10;99.90;;;;;;4915455;29;20859;-68
2023/09/08 06:43:36;;;;;;;5.37;4.87;;;17.10;99.90;;;;;;4915964;29;20474;-69
2023/09/08 06:46:02;;;;;;;5.50;5.00;;;17.20;99.90;;;;;;4913758;29;20479;-70
2023/09/08 06:48:30;;;;;;;4.17;3.97;;;17.20;99.90;;;;;;4915306;29;20473;-68
2023/09/08 06:50:57;;;;;;;5.20;4.90;;;17.20;99.90;;;;;;4914979;29;20491;-70
2023/09/08 06:53:25;;;;;;;5.37;4.97;;;17.40;99.90;;;;;;4916302;29;20522;-70
2023/09/08 06:55:51;;;;;;;5.30;5.00;;;17.50;99.90;;;;;;4916996;29;20476;-70
2023/09/08 06:58:18;;;;;;;4.80;4.50;;;17.60;99.90;;;;;;4916895;29;20477;-70
2023/09/08 07:00:45;;;;;;;5.77;5.27;;;17.70;99.90;;;;;;4913814;29;20863;-70
2023/09/08 07:03:12;;;;;;;4.63;4.33;;;17.80;99.90;;;;;;4915556;29;20564;-71
2023/09/08 07:05:40;;;;;;;4.93;4.67;;;17.90;99.90;;;;;;4916784;29;20979;-70
2023/09/08 07:08:07;;;;;;;4.57;4.27;;;18.00;99.90;;;;;;4916000;29;20982;-71
2023/09/08 07:10:37;;;;;;;5.93;4.70;;;18.30;99.90;;;;;;4907097;29;20496;-70
2023/09/08 07:13:04;;;;;;;4.90;4.60;;;18.30;99.90;;;;;;4911469;29;20474;-70
2023/09/08 07:15:31;;;;;;;5.10;4.70;;;18.40;99.90;;;;;;4916017;29;20466;-71
2023/09/08 07:17:58;;;;;;;4.80;4.50;;;18.50;99.90;;;;;;4916761;29;20559;-70
2023/09/08 07:20:24;;;;;;;4.50;4.20;;;18.60;99.90;;;;;;4916398;29;20481;-70
2023/09/08 07:22:51;;;;;;;4.37;4.10;;;18.60;99.90;;;;;;4914970;29;21210;-71
2023/09/08 07:25:19;;;;;;;5.13;4.73;;;18.80;99.90;;;;;;4912853;29;20474;-71
2023/09/08 07:27:47;;;;;;;4.10;3.90;;;18.90;99.90;;;;;;4916310;29;20890;-71
2023/09/08 07:30:14;;;;;;;4.40;4.20;;;18.90;99.90;;;;;;4915848;29;20486;-70
2023/09/08 07:32:41;;;;;;;4.37;3.97;;;19.10;99.90;;;;;;4916410;29;20470;-70
2023/09/08 07:35:13;;;;;;;5.50;4.83;;;19.10;99.90;;;;;;4916165;29;20950;-71
2023/09/08 07:37:40;;;;;;;4.60;4.30;;;19.10;99.90;;;;;;4906158;29;20970;-71
2023/09/08 07:40:08;;;;;;;4.27;4.03;;;19.10;99.90;;;;;;4910929;29;20467;-71
2023/09/08 07:42:35;;;;;;;4.67;4.37;;;19.20;99.90;;;;;;4915907;29;20490;-71
2023/09/08 07:45:03;;;;;;;4.70;4.43;;;19.30;99.90;;;;;;4913734;29;20468;-70
2023/09/08 07:47:30;;;;;;;4.10;3.80;;;19.40;99.90;;;;;;4916485;29;20467;-71
2023/09/08 07:50:19;;;;;;;5.10;4.70;;;19.60;99.90;;;;;;4916215;29;20464;-71
2023/09/08 07:52:46;;;;;;;3.97;3.87;;;19.90;99.90;;;;;;4916012;29;20496;-70
2023/09/08 07:55:13;;;;;;;5.63;5.27;;;20.00;99.90;;;;;;4909087;29;20482;-72
2023/09/08 07:57:40;;;;;;;5.80;4.07;;;20.10;99.90;;;;;;4914624;29;21011;-72
2023/09/08 08:00:11;;;;;;;4.57;4.37;;;20.20;99.90;;;;;;4914024;29;20483;-70
2023/09/08 08:02:38;;;;;;;3.90;3.70;;;20.20;99.90;;;;;;4914579;29;20522;-70
2023/09/08 08:05:06;;;;;;;4.87;4.50;;;20.30;99.90;;;;;;4915787;29;20473;-70
2023/09/08 08:07:33;;;;;;;4.87;4.47;;;20.30;99.90;;;;;;4915555;29;20497;-70
2023/09/08 08:10:00;;;;;;;4.57;4.27;;;20.30;99.90;;;;;;4912764;29;20505;-70
2023/09/08 08:12:27;;;;;;;4.73;4.47;;;20.50;99.90;;;;;;4915410;29;20548;-70
2023/09/08 08:14:53;;;;;;;3.90;3.70;;;20.70;99.90;;;;;;4916025;29;20465;-70
2023/09/08 08:17:21;;;;;;;2.67;2.57;;;20.90;99.90;;;;;;4915641;29;20490;-71
2023/09/08 08:19:48;;;;;;;4.40;4.10;;;21.00;99.90;;;;;;4915079;29;21165;-71
2023/09/08 08:22:15;;;;;;;4.00;3.80;;;21.10;99.90;;;;;;4905205;29;20512;-70
2023/09/08 08:24:42;;;;;;;3.33;3.23;;;21.30;99.90;;;;;;4914529;29;20473;-70
2023/09/08 08:27:08;;;;;;;4.23;3.90;;;21.40;99.90;;;;;;4914766;29;20505;-71
2023/09/08 08:29:35;;;;;;;5.10;4.80;;;21.50;99.90;;;;;;4915368;29;20488;-71
2023/09/08 08:32:02;;;;;;;4.07;3.90;;;21.60;99.90;;;;;;4915272;29;20497;-71
2023/09/08 08:34:30;;;;;;;4.30;4.00;;;21.70;99.90;;;;;;4915060;29;20945;-71
2023/09/08 08:36:57;;;;;;;3.87;3.67;;;21.70;99.90;;;;;;4913890;29;20475;-70
2023/09/08 08:39:23;;;;;;;5.60;4.30;;;21.90;99.90;;;;;;4915285;29;20470;-71
2023/09/08 08:41:50;;;;;;;4.23;3.87;;;22.00;99.90;;;;;;4908660;29;20558;-72
2023/09/08 08:44:18;;;;;;;4.20;4.00;;;22.10;99.90;;;;;;4914419;29;20465;-71
2023/09/08 08:46:47;;;;;;;4.97;4.40;;;22.20;99.90;;;;;;4915460;29;20465;-70
2023/09/08 08:49:16;;;;;;;4.63;4.23;;;22.50;99.90;;;;;;4915433;29;20481;-72
2023/09/08 08:51:46;;;;;;;3.53;3.40;;;22.50;99.90;;;;;;4910281;29;20488;-71
2023/09/08 08:54:14;;;;;;;4.20;3.90;;;22.60;99.90;;;;;;4915346;29;20523;-70
2023/09/08 08:56:42;;;;;;;4.33;4.10;;;22.80;99.90;;;;;;4915029;29;20496;-70
2023/09/08 08:59:10;;;;;;;3.73;3.63;;;22.80;99.90;;;;;;4914860;29;20501;-70
2023/09/08 09:01:37;;;;;;;3.00;2.90;;;22.90;99.90;;;;;;4914752;29;20511;-69
2023/09/08 09:04:07;;;;;;;4.27;4.07;;;22.90;99.90;;;;;;4902997;29;20471;-70
2023/09/08 09:06:33;;;;;;;3.70;3.50;;;23.00;99.90;;;;;;4914945;29;20566;-70
2023/09/08 09:09:04;;;;;;;3.77;3.57;;;23.10;99.90;;;;;;4914640;29;20468;-70
2023/09/08 09:11:31;;;;;;;4.10;3.80;;;23.30;99.90;;;;;;4914929;29;20527;-70
2023/09/08 09:13:58;;;;;;;3.90;3.70;;;23.40;99.90;;;;;;4914807;29;20469;-70
2023/09/08 09:16:25;;;;;;;3.77;3.67;;;23.50;99.90;;;;;;4915161;29;20578;-70
2023/09/08 09:18:56;;;;;;;3.33;3.03;;;23.50;99.90;;;;;;4907983;29;20478;-70
2023/09/08 09:21:23;;;;;;;3.30;3.10;;;23.60;99.90;;;;;;4915106;29;20993;-70
2023/09/08 09:23:50;;;;;;;4.03;3.70;;;23.70;99.90;;;;;;4914717;29;20539;-70
2023/09/08 09:26:26;;;;;;;3.87;3.67;;;23.80;99.90;;;;;;4914947;29;20473;-70
2023/09/08 09:28:53;;;;;;;4.20;3.90;;;23.80;99.90;;;;;;4914649;29;20471;-70
2023/09/08 09:31:24;;;;;;;4.80;4.60;;;23.90;99.90;;;;;;4914995;29;20493;-70
2023/09/08 09:34:04;;;;;;;3.57;3.37;;;23.90;99.90;;;;;;4910021;29;20525;-71
2023/09/08 09:36:30;;;;;;;4.00;3.80;;;23.90;99.90;;;;;;4909467;29;20478;-70
2023/09/08 09:38:59;;;;;;;3.63;3.50;;;24.00;99.90;;;;;;4917322;29;20483;-70
2023/09/08 09:41:29;;;;;;;4.17;3.97;;;24.10;99.90;;;;;;4918290;29;20928;-69
2023/09/08 09:43:56;;;;;;;3.50;3.30;;;24.20;99.90;;;;;;4918237;29;20486;-71
2023/09/08 09:46:23;;;;;;;3.10;3.00;;;24.30;99.90;;;;;;4915270;29;20469;-71
2023/09/08 09:48:52;;;;;;;3.30;3.13;;;24.50;99.90;;;;;;4917770;29;20955;-71
2023/09/08 09:51:20;;;;;;;3.60;3.40;;;24.70;99.90;;;;;;4908099;29;20539;-71
2023/09/08 09:53:47;;;;;;;3.77;3.57;;;24.70;99.90;;;;;;4914523;29;20463;-71
2023/09/08 09:56:15;;;;;;;3.67;3.47;;;24.60;99.90;;;;;;4912810;29;20467;-70
2023/09/08 09:58:44;;;;;;;3.37;3.27;;;24.70;99.90;;;;;;4917790;29;20466;-71
2023/09/08 10:01:12;;;;;;;3.00;2.80;;;24.80;99.90;;;;;;4917964;29;20511;-71
2023/09/08 10:03:39;;;;;;;3.13;3.13;;;24.90;99.90;;;;;;4917858;29;21292;-71
2023/09/08 10:06:06;;;;;;;3.00;2.90;;;24.90;99.90;;;;;;4916550;29;20486;-70
2023/09/08 10:08:36;;;;;;;3.77;3.67;;;24.90;99.90;;;;;;4917578;29;20482;-70
2023/09/08 10:11:06;;;;;;;4.03;3.83;;;24.90;99.90;;;;;;4917784;29;20629;-71
2023/09/08 10:13:39;;;;;;;3.27;3.07;;;25.00;99.90;;;;;;4917775;29;20467;-70
2023/09/08 10:16:09;;;;;;;3.37;3.27;;;25.00;99.90;;;;;;4917936;29;20498;-71
2023/09/08 10:18:36;;;;;;;4.20;3.50;;;25.00;99.90;;;;;;4917501;29;20928;-69
2023/09/08 10:21:05;;;;;;;4.47;4.17;;;25.00;99.90;;;;;;4917807;29;20491;-70
2023/09/08 10:23:37;;;;;;;4.10;3.80;;;24.90;99.90;;;;;;4915397;29;20491;-70
2023/09/08 10:26:06;;;;;;;3.00;2.90;;;24.90;99.90;;;;;;4909586;29;20472;-70
2023/09/08 10:28:33;;;;;;;3.90;3.60;;;25.20;99.90;;;;;;4906442;29;20471;-70
2023/09/08 10:31:01;;;;;;;3.40;3.30;;;25.30;99.90;;;;;;4911639;29;20532;-70
2023/09/08 10:33:30;;;;;;;5.50;4.37;;;25.50;99.90;;;;;;4917310;29;20461;-70
2023/09/08 10:35:58;;;;;;;3.40;3.30;;;25.50;99.90;;;;;;4917544;29;20790;-70
2023/09/08 10:38:27;;;;;;;3.07;2.97;;;25.80;99.90;;;;;;4917357;29;20478;-70
2023/09/08 10:40:55;;;;;;;2.77;2.70;;;25.90;99.90;;;;;;4917182;29;20485;-71
2023/09/08 10:43:21;;;;;;;4.17;3.57;;;25.90;99.90;;;;;;4911768;29;20490;-71
2023/09/08 10:45:48;;;;;;;3.50;3.30;;;25.80;99.90;;;;;;4913364;29;20469;-71
2023/09/08 10:48:16;;;;;;;3.40;3.30;;;25.90;99.90;;;;;;4917459;29;20462;-71
2023/09/08 10:50:44;;;;;;;3.17;3.07;;;26.00;99.90;;;;;;4904964;29;20956;-71
2023/09/08 10:53:15;;;;;;;3.23;3.13;;;26.10;99.90;;;;;;4917321;29;20477;-71
2023/09/08 10:55:47;;;;;;;3.70;3.60;;;26.10;99.90;;;;;;4916884;29;20462;-71
2023/09/08 10:58:19;;;;;;;2.67;2.60;;;26.10;99.90;;;;;;4910028;29;20493;-71
2023/09/08 11:00:48;;;;;;;2.63;2.53;;;26.00;99.90;;;;;;4916729;29;20914;-70
2023/09/08 11:03:15;;;;;;;3.17;3.07;;;26.30;99.90;;;;;;4916803;29;20494;-70
2023/09/08 11:05:46;;;;;;;3.47;3.20;;;26.60;99.90;;;;;;4916932;29;20533;-70
2023/09/08 11:08:14;;;;;;;3.60;3.40;;;26.60;99.90;;;;;;4917156;29;20562;-70
2023/09/08 11:10:40;;;;;;;2.93;2.93;;;26.70;99.90;;;;;;4916154;29;20490;-71
2023/09/08 11:13:07;;;;;;;2.90;2.80;;;26.90;99.90;;;;;;4913446;29;20490;-70
2023/09/08 11:15:34;;;;;;;2.63;2.60;;;27.00;99.90;;;;;;4916545;29;20498;-70
2023/09/08 11:18:07;;;;;;;2.10;2.10;;;27.10;99.90;;;;;;4916423;29;20478;-69
2023/09/08 11:20:34;;;;;;;2.93;2.83;;;27.30;99.90;;;;;;4916329;29;20486;-70
2023/09/08 11:23:04;;;;;;;2.60;2.50;;;27.30;99.90;;;;;;4916183;29;20869;-70
2023/09/08 11:25:33;;;;;;;2.83;2.73;;;27.40;99.90;;;;;;4910854;29;20844;-69
2023/09/08 11:28:00;;;;;;;2.47;2.37;;;27.30;99.90;;;;;;4902663;29;20616;-69
2023/09/08 11:30:27;;;;;;;2.70;2.60;;;27.30;99.90;;;;;;4915967;29;20468;-69
2023/09/08 11:32:54;;;;;;;3.00;2.80;;;27.40;99.90;;;;;;4916138;29;20546;-70
2023/09/08 11:35:21;;;;;;;2.50;2.40;;;27.50;99.90;;;;;;4916045;29;20463;-70
2023/09/08 11:37:49;;;;;;;2.53;2.43;;;27.50;99.90;;;;;;4915753;29;21113;-70
2023/09/08 11:40:19;;;;;;;2.90;2.80;;;27.50;99.90;;;;;;4910690;29;20478;-71
2023/09/08 11:42:46;;;;;;;2.27;2.17;;;27.60;99.90;;;;;;4914008;29;20491;-71
2023/09/08 11:45:14;;;;;;;3.03;2.83;;;27.60;99.90;;;;;;4911830;29;20497;-70
2023/09/08 11:47:42;;;;;;;2.70;2.60;;;27.80;99.90;;;;;;4915967;29;20831;-71
2023/09/08 11:50:11;;;;;;;2.40;2.37;;;27.80;99.90;;;;;;4915647;29;20490;-71
2023/09/08 11:52:39;;;;;;;2.77;2.70;;;27.70;99.90;;;;;;4915743;29;20459;-71
2023/09/08 11:55:06;;;;;;;1.93;1.93;;;27.50;99.90;;;;;;4913071;29;20494;-71
2023/09/08 11:57:34;;;;;;;2.83;2.57;;;27.50;99.90;;;;;;4908098;29;20463;-71
2023/09/08 12:00:05;;;;;;;2.60;2.50;;;27.70;99.90;;;;;;4907637;29;20462;-71
2023/09/08 12:02:35;;;;;;;2.57;2.47;;;27.60;99.90;;;;;;4915285;29;20494;-72
2023/09/08 12:05:01;;;;;;;2.80;2.70;;;27.50;99.90;;;;;;4915602;29;20462;-69
2023/09/08 12:07:29;;;;;;;2.40;2.20;;;27.60;99.90;;;;;;4915382;29;20966;-70
2023/09/08 12:09:55;;;;;;;2.60;2.60;;;27.70;99.90;;;;;;4909475;29;20478;-70
2023/09/08 12:12:22;;;;;;;2.30;2.30;;;28.00;99.90;;;;;;4915372;29;20818;-70
2023/09/08 12:14:50;;;;;;;2.70;2.60;;;28.10;99.90;;;;;;4915396;29;20462;-69
2023/09/08 12:17:18;;;;;;;2.60;2.50;;;28.10;99.90;;;;;;4915515;29;20466;-70
2023/09/08 12:19:44;;;;;;;3.00;2.80;;;28.00;99.90;;;;;;4915843;29;20502;-71
2023/09/08 12:22:12;;;;;;;2.43;2.33;;;28.00;99.90;;;;;;4915611;29;20482;-70
2023/09/08 12:24:49;;;;;;;3.10;2.90;;;27.80;99.90;;;;;;4910049;29;20483;-71
2023/09/08 12:27:16;;;;;;;2.60;2.50;;;27.70;99.90;;;;;;4913034;29;20470;-71
2023/09/08 12:29:43;;;;;;;2.60;2.50;;;27.80;99.90;;;;;;4915227;29;20968;-70
2023/09/08 12:32:12;;;;;;;3.03;2.93;;;27.70;99.90;;;;;;4915726;29;20561;-69
2023/09/08 12:34:39;;;;;;;3.00;2.80;;;27.80;99.90;;;;;;4915556;29;20979;-70
2023/09/08 12:37:10;;;;;;;2.57;2.43;;;27.80;99.90;;;;;;4915749;29;20542;-70
2023/09/08 12:39:38;;;;;;;2.80;2.60;;;27.90;99.90;;;;;;4906122;29;20497;-71
2023/09/08 12:42:05;;;;;;;2.97;2.90;;;28.00;99.90;;;;;;4905727;29;20499;-72
2023/09/08 12:44:32;;;;;;;2.70;2.60;;;28.00;99.90;;;;;;4911410;29;20495;-70
2023/09/08 12:46:59;;;;;;;2.60;2.60;;;28.00;99.90;;;;;;4905596;29;20474;-70
2023/09/08 12:49:27;;;;;;;2.50;2.30;;;28.00;99.90;;;;;;4914516;29;20463;-72
2023/09/08 12:51:54;;;;;;;2.73;2.63;;;28.00;99.90;;;;;;4907764;29;20875;-70
2023/09/08 12:54:21;;;;;;;3.43;3.23;;;28.00;99.90;;;;;;4907557;29;20570;-71
2023/09/08 12:56:47;;;;;;;2.63;2.50;;;27.90;99.90;;;;;;4915177;29;20469;-70
2023/09/08 12:59:14;;;;;;;2.20;2.20;;;27.90;99.90;;;;;;4915010;29;20981;-71
2023/09/08 13:01:41;;;;;;;3.53;3.20;;;28.00;99.90;;;;;;4912694;29;20509;-70
2023/09/08 13:04:08;;;;;;;2.63;2.63;;;28.00;99.90;;;;;;4914927;29;20490;-70
2023/09/08 13:06:36;;;;;;;2.67;2.57;;;27.90;99.90;;;;;;4914885;29;20513;-71
2023/09/08 13:09:03;;;;;;;2.33;2.23;;;27.90;99.90;;;;;;4912240;29;20467;-71
2023/09/08 13:11:30;;;;;;;2.53;2.43;;;28.10;99.90;;;;;;4914873;29;20488;-70
2023/09/08 13:13:57;;;;;;;2.70;2.60;;;28.10;99.90;;;;;;4917625;29;20527;-71
2023/09/08 13:16:23;;;;;;;3.10;3.00;;;28.00;99.90;;;;;;4918859;29;20474;-70
2023/09/08 13:18:51;;;;;;;2.57;2.57;;;28.20;99.90;;;;;;4920303;29;20477;-70
2023/09/08 13:21:17;;;;;;;3.33;3.23;;;28.30;99.90;;;;;;4922195;29;20868;-70
2023/09/08 13:23:45;;;;;;;3.00;2.90;;;28.30;99.90;;;;;;4914212;29;20821;-70
2023/09/08 13:26:12;;;;;;;2.53;2.43;;;28.30;99.90;;;;;;4922078;29;20469;-70
2023/09/08 13:28:39;;;;;;;3.00;2.80;;;28.40;99.90;;;;;;4919305;29;20554;-71
2023/09/08 13:31:05;;;;;;;3.93;3.00;;;28.30;99.90;;;;;;4911573;29;20482;-71
2023/09/08 13:33:32;;;;;;;3.50;3.40;;;28.20;99.90;;;;;;4919097;29;20455;-72
2023/09/08 13:35:59;;;;;;;2.70;2.60;;;28.10;99.90;;;;;;4918723;29;20463;-70
2023/09/08 13:38:26;;;;;;;2.70;2.60;;;28.20;99.90;;;;;;4917393;29;20539;-71
2023/09/08 13:40:54;;;;;;;3.50;3.33;;;28.30;99.90;;;;;;4917403;29;20489;-70
2023/09/08 13:43:21;;;;;;;2.07;2.07;;;28.40;99.90;;;;;;4913324;29;20494;-71
2023/09/08 13:45:48;;;;;;;2.70;2.60;;;28.40;99.90;;;;;;4916792;29;20481;-70
2023/09/08 13:48:14;;;;;;;2.53;2.43;;;28.60;99.90;;;;;;4910701;29;20470;-70
2023/09/08 13:50:41;;;;;;;2.77;2.63;;;28.60;99.90;;;;;;4908364;29;20499;-70
2023/09/08 13:53:08;;;;;;;2.33;2.33;;;28.60;99.90;;;;;;4908923;29;20845;-71
2023/09/08 13:55:35;;;;;;;2.90;2.80;;;28.60;99.90;;;;;;4904131;29;20570;-70
2023/09/08 13:58:03;;;;;;;2.50;2.40;;;28.60;99.90;;;;;;4917983;29;21993;-71
2023/09/08 14:00:30;;;;;;;2.23;2.13;;;28.70;99.90;;;;;;4913817;29;20482;-71
2023/09/08 14:02:56;;;;;;;2.70;2.57;;;28.60;99.90;;;;;;4914801;29;20581;-72
2023/09/08 14:05:23;;;;;;;2.40;2.30;;;28.60;99.90;;;;;;4917946;29;20815;-71
2023/09/08 14:07:50;;;;;;;2.27;2.20;;;28.70;99.90;;;;;;4914394;29;20479;-71
2023/09/08 14:10:17;;;;;;;3.90;2.50;;;28.70;99.90;;;;;;4917858;29;20470;-71
2023/09/08 14:12:44;;;;;;;2.40;2.30;;;28.60;99.90;;;;;;4918026;29;20467;-71
2023/09/08 14:15:15;;;;;;;2.60;2.50;;;28.60;99.90;;;;;;4910398;29;20529;-71
2023/09/08 14:17:42;;;;;;;3.13;3.10;;;28.60;99.90;;;;;;4917972;29;20903;-71
2023/09/08 14:20:09;;;;;;;2.57;2.47;;;28.70;99.90;;;;;;4909478;29;20478;-71
2023/09/08 14:22:36;;;;;;;2.70;2.70;;;28.70;99.90;;;;;;4912154;29;21043;-70
2023/09/08 14:25:04;;;;;;;2.80;2.70;;;28.70;99.90;;;;;;4913516;29;20495;-70
2023/09/08 14:27:30;;;;;;;2.60;2.53;;;28.70;99.90;;;;;;4905830;29;20806;-70
2023/09/08 14:29:57;;;;;;;4.83;2.00;;;28.70;99.90;;;;;;4916843;29;20503;-70
2023/09/08 14:32:25;;;;;;;2.73;2.63;;;28.80;99.90;;;;;;4913902;29;20526;-70
2023/09/08 14:34:52;;;;;;;2.30;2.30;;;28.90;99.90;;;;;;4906058;29;20841;-70
2023/09/08 14:37:18;;;;;;;2.33;2.23;;;28.90;99.90;;;;;;4911757;29;20474;-70
2023/09/08 14:39:46;;;;;;;1.90;1.90;;;28.90;99.90;;;;;;4913879;29;20558;-70
2023/09/08 14:42:14;;;;;;;1.90;1.80;;;28.90;99.90;;;;;;4912629;29;20494;-70
2023/09/08 14:44:40;;;;;;;2.57;2.47;;;29.00;99.90;;;;;;4911442;29;20971;-70
2023/09/08 14:47:08;;;;;;;2.37;2.37;;;29.00;99.90;;;;;;4908150;29;20847;-70
2023/09/08 14:49:36;;;;;;;2.60;2.40;;;28.80;99.90;;;;;;4911776;29;20545;-72
2023/09/08 14:52:03;;;;;;;3.30;2.90;;;28.70;99.90;;;;;;4916281;29;20490;-71
2023/09/08 14:54:30;;;;;;;3.00;2.90;;;28.70;99.90;;;;;;4912428;29;20471;-71
2023/09/08 14:56:57;;;;;;;2.47;2.37;;;28.80;99.90;;;;;;4914372;29;20467;-71
2023/09/08 14:59:24;;;;;;;2.27;2.27;;;28.90;99.90;;;;;;4910961;29;20466;-70
2023/09/08 15:01:53;;;;;;;2.40;2.30;;;28.90;99.90;;;;;;4913320;29;21017;-70
2023/09/08 15:04:20;;;;;;;2.20;2.10;;;28.80;99.90;;;;;;4914506;29;20490;-71
2023/09/08 15:06:48;;;;;;;2.60;2.50;;;28.90;99.90;;;;;;4911078;29;20475;-71
2023/09/08 15:09:15;;;;;;;1.93;1.93;;;28.80;99.90;;;;;;4906195;29;20539;-71
2023/09/08 15:11:42;;;;;;;2.37;2.27;;;28.80;99.90;;;;;;4915487;29;20494;-68
2023/09/08 15:14:09;;;;;;;2.87;2.77;;;28.80;99.90;;;;;;4916348;29;20467;-72
2023/09/08 15:16:35;;;;;;;2.20;2.20;;;28.90;99.90;;;;;;4915251;29;20476;-69
2023/09/08 15:19:02;;;;;;;3.17;2.97;;;28.90;99.90;;;;;;4907617;29;20475;-68
2023/09/08 15:21:30;;;;;;;2.40;2.13;;;28.90;99.90;;;;;;4911098;29;20490;-69
2023/09/08 15:23:58;;;;;;;2.90;2.80;;;28.80;99.90;;;;;;4915079;29;20568;-69
2023/09/08 15:26:25;;;;;;;2.33;2.33;;;28.70;99.90;;;;;;4916073;29;20478;-69
2023/09/08 15:28:51;;;;;;;2.20;2.10;;;28.60;99.90;;;;;;4913926;29;20813;-70
2023/09/08 15:31:18;;;;;;;2.30;2.30;;;28.60;99.90;;;;;;4911610;29;20482;-69
2023/09/08 15:33:45;;;;;;;3.13;2.83;;;28.60;99.90;;;;;;4911488;29;20507;-69
2023/09/08 15:36:12;;;;;;;2.00;1.90;;;28.60;99.90;;;;;;4910431;29;20469;-70
2023/09/08 15:38:39;;;;;;;2.70;2.60;;;28.60;99.90;;;;;;4906764;29;20530;-70
2023/09/08 15:41:18;;;;;;;2.10;2.10;;;28.60;99.90;;;;;;4908025;29;20997;-70
2023/09/08 15:43:47;;;;;;;2.37;2.30;;;28.50;99.90;;;;;;4911698;29;21215;-71
2023/09/08 15:46:14;;;;;;;2.03;1.93;;;28.50;99.90;;;;;;4910071;29;20550;-71
2023/09/08 15:48:41;;;;;;;1.93;1.93;;;28.50;99.90;;;;;;4904944;29;20471;-70
2023/09/08 15:51:09;;;;;;;2.17;2.17;;;28.50;99.90;;;;;;4915200;29;20575;-71
2023/09/08 15:53:36;;;;;;;1.10;1.10;;;28.50;99.90;;;;;;4916477;29;21008;-71
2023/09/08 15:56:03;;;;;;;2.07;1.97;;;28.60;99.90;;;;;;4916863;29;20458;-71
2023/09/08 15:58:31;;;;;;;1.37;1.37;;;28.50;99.90;;;;;;4915497;29;20472;-70
2023/09/08 16:00:58;;;;;;;1.50;1.50;;;28.40;99.90;;;;;;4909958;29;20491;-71
2023/09/08 16:03:24;;;;;;;1.80;1.80;;;28.50;99.90;;;;;;4910668;29;20470;-71
2023/09/08 16:05:51;;;;;;;2.13;2.03;;;28.50;99.90;;;;;;4903636;29;20507;-70
2023/09/08 16:08:18;;;;;;;1.80;1.80;;;28.40;99.90;;;;;;4910488;29;20530;-71
2023/09/08 16:10:46;;;;;;;2.13;2.03;;;28.30;99.90;;;;;;4915512;29;20977;-71
2023/09/08 16:13:13;;;;;;;1.80;1.80;;;28.30;99.90;;;;;;4915767;29;20462;-71
2023/09/08 16:15:41;;;;;;;2.03;1.93;;;28.20;99.90;;;;;;4909233;29;20494;-71
2023/09/08 16:18:09;;;;;;;1.67;1.60;;;28.20;99.90;;;;;;4915411;29;20846;-70
2023/09/08 16:20:37;;;;;;;1.80;1.80;;;28.30;99.90;;;;;;4910360;29;20830;-71
2023/09/08 16:23:05;;;;;;;2.53;2.43;;;28.20;99.90;;;;;;4907351;29;20561;-71
2023/09/08 16:25:32;;;;;;;2.20;2.10;;;28.10;99.90;;;;;;4914317;29;20573;-71
2023/09/08 16:27:59;;;;;;;1.73;1.73;;;28.00;99.90;;;;;;4907971;29;20469;-71
2023/09/08 16:30:25;;;;;;;1.90;1.90;;;27.80;99.90;;;;;;4911029;29;20505;-70
2023/09/08 16:32:53;;;;;;;2.23;2.23;;;27.80;99.90;;;;;;4914844;29;20495;-71
2023/09/08 16:35:20;;;;;;;1.80;1.80;;;27.80;99.90;;;;;;4939864;23;20870;-70
2023/09/08 16:37:47;;;;;;;2.00;2.00;;;27.70;99.90;;;;;;4950562;28;20472;-70
2023/09/08 16:40:13;;;;;;;1.90;1.90;;;27.60;99.90;;;;;;4934580;28;20497;-69
2023/09/08 16:42:40;;;;;;;2.03;1.80;;;27.60;99.90;;;;;;4941723;28;20462;-70
2023/09/08 16:45:08;;;;;;;2.13;2.03;;;27.60;99.90;;;;;;4939559;28;20509;-70
2023/09/08 16:47:35;;;;;;;2.60;2.50;;;27.40;99.90;;;;;;4914921;29;20470;-70
2023/09/08 16:50:04;;;;;;;2.20;2.10;;;27.30;99.90;;;;;;4916460;29;20469;-70